EGGDEGSS

Guest
Details From EGGD - Bristol Lulsgate
To EGSS - London Stansted
Flight Number -
Tags Routegen
Created
Modified
Stats Distance 114 nm / 211 km
Max Altitude 0 ft / 0 m
Waypoints 2
Social Downloads 0
Likes 0
Share VATSIM

Download

Looking for another format? Having issues loading an existing format? Contact us
Advertisement - Login to hide

Notes

None

Route

EGGD EGSS

ID Type Via Altitude Latitude Longitude Leg Dist Tot Dist Heading (true) Name
O EGGD APT - 0 ft / 0 m 51.38211˚ -2.73350˚ - 0 nm - -
O EGSS APT - 0 ft / 0 m 51.87508˚ 0.21993˚ 114 nm 114 nm 74° / 76° -

Altitude Profile

Advertisement - Login to hide

EGGD

Details ICAO EGGD (BRS)
Name Bristol International
Region United Kingdom
Timezone Europe/London (UTC+1.0)
Stats Elevation 622 ft / 190 m (AMSL)
Location 51.382658° -2.718918°
Runways 1
Magnetic Variation 1.286° W

METAR

EGGD 201020Z AUTO VRB04KT 9999 NCD 18/08 Q1022

Decode

TAF

TAF EGGD 200459Z 2006/2106 VRB04KT 9999 FEW040 PROB30 2103/2106 8000

Decode

Departure Runways

ID Width Length Bearing (true) Bearing (mag) Surface Threshold Offset Overrun Length
09 148 ft / 45 m 6,655 ft / 2,029 m 86.42° 87.71° Asphalt 0 ft / 0 m 0 ft / 0 m
27 148 ft / 45 m 6,655 ft / 2,029 m 266.44° 267.73° Asphalt 499 ft / 152 m 0 ft / 0 m

EGSS

Details ICAO EGSS (STN)
Name London Stansted
Region United Kingdom
Timezone Europe/London (UTC+1.0)
Stats Elevation 348 ft / 106 m (AMSL)
Location 51.885097° 0.234962°
Runways 1
Magnetic Variation 0.299° W

METAR

EGSS 201020Z AUTO 12006KT 060V190 9999 NCD 16/11 Q1023

Decode

TAF

TAF EGSS 200459Z 2006/2112 12005KT 0700 BCFG BKN001 BECMG 2006/2008 7000 NSW BKN008 BECMG 2008/2010 9999 FEW030 BECMG 2021/2024 6000 TEMPO 2100/2108 2500 BR BKN002 PROB30 2101/2107 0300 FG OVC000 BECMG 2108/2110 9999

Decode

Destination Runways

ID Width Length Bearing (true) Bearing (mag) Surface Threshold Offset Overrun Length
04 151 ft / 46 m 10,011 ft / 3,052 m 42.79° 43.09° Asphalt 994 ft / 303 m 0 ft / 0 m
22 151 ft / 46 m 10,011 ft / 3,052 m 222.81° 223.11° Asphalt 0 ft / 0 m 0 ft / 0 m

Approach Navaids

Runway Type Ident Frequency Range Bearing (true) Bearing (mag) Slope Elevation
04 Localiser ISED 110.50 MHz 18 nm / 33 km 42.80° 43.10° - 348 ft / 106 m (AMSL)
04 Glidescope ISED 110.50 MHz 10 nm / 19 km 42.80° 43.10° 3.00° 348 ft / 106 m (AMSL)
04 DME ISED 110.50 MHz 18 nm / 33 km - - - 348 ft / 106 m (AMSL)
22 Localiser ISX 110.50 MHz 18 nm / 33 km 222.80° 223.10° - 348 ft / 106 m (AMSL)
22 Glidescope ISX 110.50 MHz 10 nm / 19 km 222.80° 223.10° 3.00° 348 ft / 106 m (AMSL)
22 DME ISX 110.50 MHz 18 nm / 33 km - - - 348 ft / 106 m (AMSL)

Popular Alternatives